LNG Golar Tundra — V7AF3 — position and weather

sailwx.info

Track history (hours):
 
Tides and Currents Weather Stations Pressure Air Temp Water Temp Dewpoint Dewpoint Depression Visibility Wind Speed Wind Dir Waves Ship Positions

LNG Golar Tundra

Last reported at 2018-Jun-16 03:13 UTC. Time now 2018-Jun-20 20:34 UTC.
Position N 37°20' E 003°47'.

Length 293 m; draft 11.8 m.

Type: Ship (hazmat cat A). MMSI: 538004982.

Date/timePositionNaut miles runAvg speedWind from/ knotsBaromVisibWave heightAir tempDewpointWater temp
2018-Jun-16 03:13N 37°20' E 003°47'613.0
2018-Jun-16 02:44N 37°19' E 003°39'412.8
2018-Jun-16 02:24N 37°18' E 003°34'612.9
2018-Jun-16 01:58N 37°18' E 003°27'612.9
2018-Jun-16 01:30N 37°17' E 003°20'813.0
2018-Jun-16 00:53N 37°16' E 003°10'513.2
2018-Jun-16 00:30N 37°16' E 003°04'713.5
2018-Jun-16 00:00N 37°14' E 002°55'713.9
2018-Jun-15 23:30N 37°12' E 002°47'714.3
2018-Jun-15 23:01N 37°10' E 002°38'714.6
2018-Jun-15 22:31N 37°08' E 002°30'714.6
2018-Jun-15 22:00N 37°06' E 002°20'714.4
2018-Jun-15 21:31N 37°04' E 002°12'714.1
2018-Jun-15 21:00N 37°02' E 002°04'713.9
2018-Jun-15 20:30N 37°01' E 001°55'714.0
2018-Jun-15 19:59N 36°59' E 001°46'714.0
2018-Jun-15 19:30N 36°57' E 001°38'714.2
2018-Jun-15 19:00N 36°56' E 001°29'714.0
2018-Jun-15 18:30N 36°53' E 001°21'714.1
2018-Jun-15 18:00N 36°50' E 001°14'714.2
2018-Jun-15 17:30N 36°47' E 001°06'714.1
2018-Jun-15 17:00N 36°44' E 000°57'714.1
2018-Jun-15 16:29N 36°41' E 000°50'714.2
2018-Jun-15 16:00N 36°37' E 000°42'714.0
2018-Jun-15 15:30N 36°33' E 000°35'714.1
2018-Jun-15 15:00N 36°29' E 000°28'714.1
2018-Jun-15 14:30N 36°24' E 000°21'714.0
2018-Jun-15 14:00N 36°20' E 000°15'714.2
2018-Jun-15 13:31N 36°15' E 000°08'714.4
2018-Jun-15 13:00N 36°10' E 000°02'714.0
2018-Jun-15 12:30N 36°05' W 000°05'712.7
2018-Jun-15 11:59N 36°01' W 000°11'612.1
2018-Jun-15 11:30N 35°55' W 000°12'510.4
2018-Jun-15 10:59N 35°50' W 000°14'  
2018-Jun-12 20:36N 36°56' E 001°32'114.3
2018-Jun-12 20:30N 36°57' E 001°34'714.4
2018-Jun-12 20:00N 36°59' E 001°43'714.5
2018-Jun-12 19:30N 37°00' E 001°52'714.6
2018-Jun-12 19:00N 37°02' E 002°00'714.6
2018-Jun-12 18:30N 37°04' E 002°09'714.5
2018-Jun-12 18:00N 37°06' E 002°18'713.6
2018-Jun-12 17:30N 37°08' E 002°26'713.5
2018-Jun-12 17:00N 37°10' E 002°34'713.5
2018-Jun-12 16:30N 37°11' E 002°42'713.9
2018-Jun-12 16:01N 37°13' E 002°51'714.2
2018-Jun-12 15:30N 37°14' E 002°60'42214.9
2018-Jun-11 11:12N 37°08' E 011°49'315.9
2018-Jun-11 10:59N 37°06' E 011°52'816.1
2018-Jun-11 10:29N 37°02' E 012°01'916.0
2018-Jun-11 09:57N 36°57' E 012°10'716.1
2018-Jun-11 09:30N 36°52' E 012°16'816.0
2018-Jun-11 09:00N 36°47' E 012°24'1015.8
2018-Jun-11 08:23N 36°42' E 012°34'616.1
2018-Jun-11 08:00N 36°38' E 012°40'816.1
2018-Jun-11 07:30N 36°33' E 012°48'816.1
2018-Jun-11 07:00N 36°28' E 012°56'816.3
2018-Jun-11 06:29N 36°23' E 013°04'816.9
2018-Jun-11 06:00N 36°18' E 013°13'71816.4
2018-Jun-09 10:20N 32°53' E 027°08'616.3
2018-Jun-09 09:59N 32°52' E 027°15'1016.2
2018-Jun-09 09:23N 32°50' E 027°26'814.8
2018-Jun-09 08:49N 32°48' E 027°36'23117.1
2018-Jun-08 19:19N 31°45' E 031°59'617.0
2018-Jun-08 18:59N 31°41' E 032°04'917.0
2018-Jun-08 18:28N 31°35' E 032°11'1216.1
2018-Jun-08 17:42N 31°29' E 032°24'412.5
2018-Jun-08 17:25N 31°26' E 032°24'5 9.8
2018-Jun-08 16:53N 31°21' E 032°23'10 8.0
2018-Jun-08 15:35N 31°11' E 032°20'0 5.5
2018-Jun-08 15:30N 31°10' E 032°20'7 9.1
2018-Jun-08 14:44N 31°03' E 032°19'2 9.9
2018-Jun-08 14:30N 31°01' E 032°19'810.1
2018-Jun-08 13:41N 30°53' E 032°19'210.1
2018-Jun-08 13:29N 30°51' E 032°19'  
Track history (hours):
 
Tides and Currents Weather Stations Pressure Air Temp Water Temp Dewpoint Dewpoint Depression Visibility Wind Speed Wind Dir Waves Ship Positions

LNG Golar Tundra

Last reported at 2018-Jun-16 03:13 UTC. Time now 2018-Jun-20 20:34 UTC.
Position N 37°20' E 003°47'.

Length 293 m; draft 11.8 m.

Type: Ship (hazmat cat A). MMSI: 538004982.

Date/timePositionNaut miles runAvg speedWind from/ knotsBaromVisibWave heightAir tempDewpointWater temp
2018-Jun-16 03:13N 37°20' E 003°47'613.0
2018-Jun-16 02:44N 37°19' E 003°39'412.8
2018-Jun-16 02:24N 37°18' E 003°34'612.9
2018-Jun-16 01:58N 37°18' E 003°27'612.9
2018-Jun-16 01:30N 37°17' E 003°20'813.0
2018-Jun-16 00:53N 37°16' E 003°10'513.2
2018-Jun-16 00:30N 37°16' E 003°04'713.5
2018-Jun-16 00:00N 37°14' E 002°55'713.9
2018-Jun-15 23:30N 37°12' E 002°47'714.3
2018-Jun-15 23:01N 37°10' E 002°38'714.6
2018-Jun-15 22:31N 37°08' E 002°30'714.6
2018-Jun-15 22:00N 37°06' E 002°20'714.4
2018-Jun-15 21:31N 37°04' E 002°12'714.1
2018-Jun-15 21:00N 37°02' E 002°04'713.9
2018-Jun-15 20:30N 37°01' E 001°55'714.0
2018-Jun-15 19:59N 36°59' E 001°46'714.0
2018-Jun-15 19:30N 36°57' E 001°38'714.2
2018-Jun-15 19:00N 36°56' E 001°29'714.0
2018-Jun-15 18:30N 36°53' E 001°21'714.1
2018-Jun-15 18:00N 36°50' E 001°14'714.2
2018-Jun-15 17:30N 36°47' E 001°06'714.1
2018-Jun-15 17:00N 36°44' E 000°57'714.1
2018-Jun-15 16:29N 36°41' E 000°50'714.2
2018-Jun-15 16:00N 36°37' E 000°42'714.0
2018-Jun-15 15:30N 36°33' E 000°35'714.1
2018-Jun-15 15:00N 36°29' E 000°28'714.1
2018-Jun-15 14:30N 36°24' E 000°21'714.0
2018-Jun-15 14:00N 36°20' E 000°15'714.2
2018-Jun-15 13:31N 36°15' E 000°08'714.4
2018-Jun-15 13:00N 36°10' E 000°02'714.0
2018-Jun-15 12:30N 36°05' W 000°05'712.7
2018-Jun-15 11:59N 36°01' W 000°11'612.1
2018-Jun-15 11:30N 35°55' W 000°12'510.4
2018-Jun-15 10:59N 35°50' W 000°14'  
2018-Jun-12 20:36N 36°56' E 001°32'114.3
2018-Jun-12 20:30N 36°57' E 001°34'714.4
2018-Jun-12 20:00N 36°59' E 001°43'714.5
2018-Jun-12 19:30N 37°00' E 001°52'714.6
2018-Jun-12 19:00N 37°02' E 002°00'714.6
2018-Jun-12 18:30N 37°04' E 002°09'714.5
2018-Jun-12 18:00N 37°06' E 002°18'713.6
2018-Jun-12 17:30N 37°08' E 002°26'713.5
2018-Jun-12 17:00N 37°10' E 002°34'713.5
2018-Jun-12 16:30N 37°11' E 002°42'713.9
2018-Jun-12 16:01N 37°13' E 002°51'714.2
2018-Jun-12 15:30N 37°14' E 002°60'42214.9
2018-Jun-11 11:12N 37°08' E 011°49'315.9
2018-Jun-11 10:59N 37°06' E 011°52'816.1
2018-Jun-11 10:29N 37°02' E 012°01'916.0
2018-Jun-11 09:57N 36°57' E 012°10'716.1
2018-Jun-11 09:30N 36°52' E 012°16'816.0
2018-Jun-11 09:00N 36°47' E 012°24'1015.8
2018-Jun-11 08:23N 36°42' E 012°34'616.1
2018-Jun-11 08:00N 36°38' E 012°40'816.1
2018-Jun-11 07:30N 36°33' E 012°48'816.1
2018-Jun-11 07:00N 36°28' E 012°56'816.3
2018-Jun-11 06:29N 36°23' E 013°04'816.9
2018-Jun-11 06:00N 36°18' E 013°13'71816.4
2018-Jun-09 10:20N 32°53' E 027°08'616.3
2018-Jun-09 09:59N 32°52' E 027°15'1016.2
2018-Jun-09 09:23N 32°50' E 027°26'814.8
2018-Jun-09 08:49N 32°48' E 027°36'23117.1
2018-Jun-08 19:19N 31°45' E 031°59'617.0
2018-Jun-08 18:59N 31°41' E 032°04'917.0
2018-Jun-08 18:28N 31°35' E 032°11'1216.1
2018-Jun-08 17:42N 31°29' E 032°24'412.5
2018-Jun-08 17:25N 31°26' E 032°24'5 9.8
2018-Jun-08 16:53N 31°21' E 032°23'10 8.0
2018-Jun-08 15:35N 31°11' E 032°20'0 5.5
2018-Jun-08 15:30N 31°10' E 032°20'7 9.1
2018-Jun-08 14:44N 31°03' E 032°19'2 9.9
2018-Jun-08 14:30N 31°01' E 032°19'810.1
2018-Jun-08 13:41N 30°53' E 032°19'210.1
2018-Jun-08 13:29N 30°51' E 032°19'  

Dump ship's entire track history